Time;durP1;ratioP1;P1;durP2;ratioP2;P2;SDS_P1;SDS_P2;PMS_P1;PMS_P2;Temp;Humidity;BMP_temperature;BMP_pressure;BME280_temperature;BME280_humidity;BME280_pressure;Samples;Min_cycle;Max_cycle;Signal;HPM_P1;HPM_P2
2021/01/30 00:02:12;;;;;;;14.82;6.32;;;;;;;-5.25;81.15;100167.81;5081124;28;20031;-76
2021/01/30 00:04:38;;;;;;;10.43;5.45;;;;;;;-5.28;80.99;100170.03;5091070;28;20089;-78
2021/01/30 00:07:03;;;;;;;11.65;6.80;;;;;;;-5.31;81.40;100171.22;5091305;28;20012;-78
2021/01/30 00:09:29;;;;;;;12.43;6.47;;;;;;;-5.34;81.74;100173.44;5090951;28;20085;-79
2021/01/30 00:11:58;;;;;;;12.73;6.07;;;;;;;-5.37;81.68;100180.75;5090049;28;20110;-80
2021/01/30 00:14:25;;;;;;;14.05;7.65;;;;;;;-5.39;81.62;100180.09;5065617;28;20457;-77
2021/01/30 00:16:51;;;;;;;13.45;6.10;;;;;;;-5.41;81.61;100182.09;5088975;28;20056;-78
2021/01/30 00:19:16;;;;;;;12.18;5.90;;;;;;;-5.44;81.56;100171.84;5090018;28;20032;-78
2021/01/30 00:21:41;;;;;;;10.02;5.85;;;;;;;-5.46;81.04;100176.53;5073795;28;20081;-78
2021/01/30 00:24:07;;;;;;;11.95;5.68;;;;;;;-5.46;81.32;100171.22;5080927;28;20024;-78
2021/01/30 00:26:33;;;;;;;8.88;5.13;;;;;;;-5.49;81.19;100168.94;5090121;28;20056;-79
2021/01/30 00:28:58;;;;;;;9.27;4.65;;;;;;;-5.50;81.37;100167.28;5089764;28;20020;-79
2021/01/30 00:31:23;;;;;;;12.80;5.55;;;;;;;-5.53;81.46;100172.97;5090528;28;20370;-78
2021/01/30 00:33:49;;;;;;;10.25;5.38;;;;;;;-5.54;81.23;100163.34;5075952;28;20478;-77
2021/01/30 00:36:14;;;;;;;9.63;4.85;;;;;;;-5.55;81.60;100164.34;5096293;28;20490;-78
2021/01/30 00:38:39;;;;;;;11.68;5.57;;;;;;;-5.57;81.31;100166.38;5094006;28;20024;-77
2021/01/30 00:41:05;;;;;;;9.63;5.13;;;;;;;-5.58;81.60;100170.03;5093203;28;21748;-77
2021/01/30 00:43:30;;;;;;;11.35;5.45;;;;;;;-5.60;81.13;100172.88;5093699;28;20036;-77
2021/01/30 00:45:56;;;;;;;9.82;5.32;;;;;;;-5.61;81.67;100173.88;5094739;28;20022;-77
2021/01/30 00:48:21;;;;;;;10.25;4.57;;;;;;;-5.62;81.58;100174.06;5094893;28;20028;-78
2021/01/30 00:50:47;;;;;;;8.52;4.60;;;;;;;-5.62;81.74;100174.06;5094652;28;20032;-76
2021/01/30 00:53:12;;;;;;;11.73;5.70;;;;;;;-5.63;81.71;100167.94;5068566;28;20020;-77
2021/01/30 00:55:37;;;;;;;12.95;5.82;;;;;;;-5.64;80.89;100166.28;5095674;28;20024;-78
2021/01/30 00:58:03;;;;;;;10.90;5.40;;;;;;;-5.64;81.33;100165.47;5093026;28;20028;-77
2021/01/30 01:00:28;;;;;;;12.85;5.60;;;;;;;-5.66;81.74;100173.59;5095509;28;20032;-78
2021/01/30 01:02:54;;;;;;;11.15;5.57;;;;;;;-5.67;81.75;100171.16;5076794;28;20024;-76
2021/01/30 01:05:19;;;;;;;10.60;5.93;;;;;;;-5.67;81.66;100165.84;5077690;28;20648;-77
2021/01/30 01:07:45;;;;;;;11.60;5.22;;;;;;;-5.66;81.49;100170.13;5094566;28;20526;-77
2021/01/30 01:10:12;;;;;;;9.63;5.40;;;;;;;-5.67;81.43;100171.16;5095076;28;20046;-78
2021/01/30 01:12:37;;;;;;;13.05;5.15;;;;;;;-5.67;81.60;100171.16;5092427;28;20031;-79
2021/01/30 01:15:04;;;;;;;10.23;5.32;;;;;;;-5.70;81.45;100167.03;5094925;28;20027;-77
2021/01/30 01:17:30;;;;;;;12.55;6.03;;;;;;;-5.72;81.57;100168.22;5093247;28;20028;-77
2021/01/30 01:19:55;;;;;;;14.07;6.78;;;;;;;-5.73;81.90;100171.88;5093886;28;20028;-78
2021/01/30 01:22:21;;;;;;;13.85;6.68;;;;;;;-5.74;81.77;100172.88;5093886;28;20385;-77
2021/01/30 01:24:46;;;;;;;13.65;6.63;;;;;;;-5.72;81.42;100168.22;5092156;28;20028;-77
2021/01/30 01:27:11;;;;;;;10.25;5.78;;;;;;;-5.71;81.73;100180.47;5094160;28;20024;-78
2021/01/30 01:29:37;;;;;;;11.65;6.03;;;;;;;-5.73;81.55;100169.22;5094066;28;20081;-77
2021/01/30 01:32:02;;;;;;;12.15;6.35;;;;;;;-5.74;81.96;100173.69;5093938;28;20020;-77
2021/01/30 01:34:28;;;;;;;13.80;6.00;;;;;;;-5.75;81.75;100158.78;5075288;28;20104;-77
2021/01/30 01:36:58;;;;;;;14.90;7.10;;;;;;;-5.75;81.73;100163.28;5093981;28;20104;-76
2021/01/30 01:39:24;;;;;;;12.13;6.25;;;;;;;-5.76;81.62;100164.25;5093495;28;20016;-77
2021/01/30 01:42:16;;;;;;;11.88;6.32;;;;;;;-5.77;81.52;100165.28;5074956;28;20534;-77
2021/01/30 01:44:42;;;;;;;15.05;6.15;;;;;;;-5.78;82.17;100159.16;5089223;28;20039;-77
2021/01/30 01:47:16;;;;;;;11.27;5.93;;;;;;;-5.80;81.68;100151.38;5077123;28;20500;-77
2021/01/30 01:49:41;;;;;;;14.77;5.75;;;;;;;-5.81;81.94;100160.34;5075657;28;20431;-77
2021/01/30 01:52:21;;;;;;;12.85;5.60;;;;;;;-5.85;82.15;100152.91;5090351;28;20021;-77
2021/01/30 01:54:49;;;;;;;10.55;5.28;;;;;;;-5.87;81.87;100149.63;5092805;28;20031;-76
2021/01/30 01:57:14;;;;;;;12.50;5.95;;;;;;;-5.87;81.88;100150.44;5072527;28;20115;-77
2021/01/30 01:59:43;;;;;;;10.63;4.72;;;;;;;-5.87;81.94;100158.41;5086643;28;20025;-77
2021/01/30 02:02:08;;;;;;;10.98;5.10;;;;;;;-5.88;81.76;100158.59;5085525;28;20058;-78
2021/01/30 02:04:34;;;;;;;10.48;5.45;;;;;;;-5.91;81.89;100154.47;5075238;28;20043;-76
2021/01/30 02:06:59;;;;;;;12.32;5.53;;;;;;;-5.94;82.13;100146.91;5076478;28;20054;-78
2021/01/30 02:09:25;;;;;;;12.65;5.55;;;;;;;-5.96;82.03;100143.59;5062418;28;20066;-77
2021/01/30 02:12:05;;;;;;;10.15;5.30;;;;;;;-5.99;82.11;100145.81;5092149;28;20083;-78
2021/01/30 02:14:32;;;;;;;9.38;4.18;;;;;;;-6.02;82.22;100149.66;5075705;28;20024;-77
2021/01/30 02:17:09;;;;;;;11.07;4.85;;;;;;;-6.05;82.31;100147.34;5072855;28;20023;-76
2021/01/30 02:20:12;;;;;;;9.90;4.80;;;;;;;-6.08;82.26;100153.03;5087682;28;21033;-77
2021/01/30 02:23:01;;;;;;;11.07;4.53;;;;;;;-6.13;82.17;100139.47;5093294;28;20492;-77
2021/01/30 02:25:45;;;;;;;12.98;5.50;;;;;;;-6.16;82.11;100129.25;5091607;28;20043;-76
2021/01/30 02:28:22;;;;;;;10.55;4.80;;;;;;;-6.17;82.14;100138.19;5091589;28;20024;-77
2021/01/30 02:30:58;;;;;;;9.43;4.20;;;;;;;-6.21;82.10;100127.13;5076959;28;20019;-77
2021/01/30 02:33:26;;;;;;;9.80;4.45;;;;;;;-6.26;82.23;100132.94;5084984;28;20018;-77
2021/01/30 02:36:29;;;;;;;8.23;4.80;;;;;;;-6.34;82.22;100127.72;5093634;28;20041;-77
2021/01/30 02:39:18;;;;;;;10.95;4.30;;;;;;;-6.42;81.99;100127.78;5084777;28;20032;-77
2021/01/30 02:42:23;;;;;;;10.48;4.60;;;;;;;-6.49;82.14;100129.53;5076586;28;20496;-77
2021/01/30 02:44:52;;;;;;;8.50;4.57;;;;;;;-6.54;82.16;100130.06;5064325;28;20055;-78
2021/01/30 02:47:17;;;;;;;7.65;4.25;;;;;;;-6.60;82.20;100122.84;5073210;28;20029;-78
2021/01/30 02:49:46;;;;;;;13.82;6.07;;;;;;;-6.61;82.23;100126.47;5073966;28;20020;-77
2021/01/30 02:52:20;;;;;;;8.13;4.43;;;;;;;-6.60;82.10;100128.13;5075541;28;20058;-77
2021/01/30 02:54:46;;;;;;;8.95;4.95;;;;;;;-6.61;82.35;100130.94;5071337;28;20024;-77
2021/01/30 02:57:12;;;;;;;10.95;4.90;;;;;;;-6.66;82.19;100125.34;5075319;28;20460;-76
2021/01/30 02:59:46;;;;;;;9.82;5.18;;;;;;;-6.74;82.31;100119.13;5082337;28;20043;-77
2021/01/30 03:02:12;;;;;;;9.27;4.55;;;;;;;-6.80;82.45;100119.00;5074871;28;20074;-75
2021/01/30 03:04:38;;;;;;;9.77;4.95;;;;;;;-6.86;82.24;100117.88;5074319;28;20032;-77
2021/01/30 03:07:21;;;;;;;13.65;6.43;;;;;;;-6.87;82.30;100108.28;5093185;28;20028;-77
2021/01/30 03:09:58;;;;;;;12.32;5.45;;;;;;;-6.88;82.22;100109.28;5092096;28;20028;-78
2021/01/30 03:12:42;;;;;;;10.93;5.78;;;;;;;-6.89;82.39;100096.22;5090951;28;20039;-77
2021/01/30 03:15:21;;;;;;;9.98;5.28;;;;;;;-6.90;82.41;100095.41;5090769;28;20035;-77
2021/01/30 03:17:46;;;;;;;14.07;7.15;;;;;;;-6.90;82.51;100095.41;5082361;28;20052;-78
2021/01/30 03:20:12;;;;;;;13.52;5.68;;;;;;;-6.91;82.51;100091.09;5073810;28;20062;-77
2021/01/30 03:22:38;;;;;;;12.90;5.57;;;;;;;-6.94;82.46;100081.66;5071655;28;20152;-78
2021/01/30 03:25:03;;;;;;;13.35;5.72;;;;;;;-6.94;82.62;100088.78;5057115;28;20457;-76
2021/01/30 03:27:30;;;;;;;11.98;6.10;;;;;;;-6.95;82.60;100108.34;5089269;28;20386;-76
2021/01/30 03:29:56;;;;;;;12.25;6.05;;;;;;;-6.99;82.67;100104.41;5083375;28;20103;-77
2021/01/30 03:32:25;;;;;;;11.75;5.57;;;;;;;-7.03;82.37;100092.53;5071454;28;20063;-77
2021/01/30 03:34:51;;;;;;;10.93;6.10;;;;;;;-7.06;82.12;100095.53;5060792;28;20048;-77
2021/01/30 03:37:17;;;;;;;10.80;6.03;;;;;;;-7.07;82.50;100088.56;5074681;28;20104;-76
2021/01/30 03:39:42;;;;;;;15.15;6.85;;;;;;;-7.06;82.66;100092.88;5070226;28;20052;-76
2021/01/30 03:42:08;;;;;;;17.05;6.80;;;;;;;-7.03;82.69;100084.56;5076587;28;20032;-77
2021/01/30 03:44:33;;;;;;;16.90;7.00;;;;;;;-7.00;82.79;100089.50;5069711;28;20440;-77
2021/01/30 03:46:59;;;;;;;14.50;6.53;;;;;;;-6.98;82.57;100088.34;5084039;28;20085;-78
2021/01/30 03:49:25;;;;;;;14.75;6.85;;;;;;;-7.01;82.54;100088.69;5089902;28;20062;-75
2021/01/30 03:51:50;;;;;;;13.63;5.68;;;;;;;-7.05;82.93;100092.69;5092515;28;20035;-77
2021/01/30 03:54:16;;;;;;;14.85;6.13;;;;;;;-7.08;82.55;100094.88;5091285;28;20354;-77
2021/01/30 03:56:42;;;;;;;11.35;6.13;;;;;;;-7.13;82.44;100086.63;5091173;28;20028;-77
2021/01/30 03:59:08;;;;;;;13.27;5.88;;;;;;;-7.12;82.61;100091.75;5055356;28;20028;-76
2021/01/30 04:01:33;;;;;;;9.48;4.82;;;;;;;-7.11;82.59;100092.56;5087907;28;20036;-77
2021/01/30 04:03:59;;;;;;;10.10;5.28;;;;;;;-7.15;82.43;100086.78;5086655;28;20039;-77
2021/01/30 04:06:24;;;;;;;14.23;6.05;;;;;;;-7.17;82.49;100097.56;5086705;28;20144;-76
2021/01/30 04:08:49;;;;;;;16.38;7.22;;;;;;;-7.15;82.65;100097.38;5091085;28;20028;-77
2021/01/30 04:11:15;;;;;;;9.15;5.45;;;;;;;-7.03;82.72;100089.88;5089831;28;20028;-77
2021/01/30 04:13:40;;;;;;;11.00;5.63;;;;;;;-7.04;82.67;100088.19;5091103;28;20465;-76
2021/01/30 04:16:06;;;;;;;12.90;5.75;;;;;;;-7.14;82.42;100093.75;5092273;28;20024;-77
2021/01/30 04:18:31;;;;;;;13.68;5.97;;;;;;;-7.21;82.33;100088.31;5089525;28;20035;-76
2021/01/30 04:20:56;;;;;;;17.23;7.05;;;;;;;-7.29;82.40;100093.66;5082952;28;20020;-76
2021/01/30 04:23:22;;;;;;;12.30;5.72;;;;;;;-7.37;82.46;100083.97;5089510;28;20389;-77
2021/01/30 04:25:47;;;;;;;14.32;5.97;;;;;;;-7.42;82.52;100094.25;5090472;28;20354;-76
2021/01/30 04:28:13;;;;;;;12.07;5.85;;;;;;;-7.44;82.74;100082.19;5090767;28;20473;-76
2021/01/30 04:30:38;;;;;;;14.45;6.88;;;;;;;-7.46;82.63;100078.88;5090550;28;20354;-76
2021/01/30 04:33:04;;;;;;;10.88;5.60;;;;;;;-7.47;82.57;100087.81;5092074;28;20078;-77
2021/01/30 04:35:32;;;;;;;12.23;5.35;;;;;;;-7.51;82.64;100087.34;5089587;28;20423;-74
2021/01/30 04:37:58;;;;;;;9.32;5.85;;;;;;;-7.54;82.69;100092.16;5091988;28;20024;-77
2021/01/30 04:40:33;;;;;;;13.45;5.95;;;;;;;-7.52;83.07;100084.88;5089565;28;20108;-77
2021/01/30 04:43:05;;;;;;;12.35;5.85;;;;;;;-7.52;82.36;100084.88;5090762;28;20495;-77
2021/01/30 04:45:45;;;;;;;12.98;5.57;;;;;;;-7.54;82.77;100071.78;5089426;28;20024;-76
2021/01/30 04:48:19;;;;;;;14.38;6.50;;;;;;;-7.41;83.01;100071.25;5070089;28;20071;-76
2021/01/30 04:51:00;;;;;;;15.15;6.57;;;;;;;-7.28;82.54;100068.03;5089254;28;20028;-75
2021/01/30 04:53:49;;;;;;;16.65;6.60;;;;;;;-7.29;82.47;100069.81;5090427;28;20028;-77
2021/01/30 04:56:23;;;;;;;16.35;6.10;;;;;;;-7.29;82.74;100069.81;5089002;28;20027;-78
2021/01/30 04:58:55;;;;;;;15.55;6.47;;;;;;;-7.29;82.57;100064.53;5090555;28;20036;-77
2021/01/30 05:01:28;;;;;;;10.85;5.25;;;;;;;-7.22;82.69;100065.50;5090424;28;20043;-76
2021/01/30 05:04:03;;;;;;;12.35;5.90;;;;;;;-7.20;82.65;100068.78;5072370;28;20119;-76
2021/01/30 05:06:46;;;;;;;11.75;5.97;;;;;;;-7.14;82.46;100067.25;5081797;28;20024;-76
2021/01/30 05:09:16;;;;;;;13.77;6.20;;;;;;;-7.09;82.38;100064.06;5087430;28;20028;-76
2021/01/30 05:11:53;;;;;;;17.67;6.05;;;;;;;-7.05;82.66;100055.59;5089341;28;20020;-76
2021/01/30 05:14:19;;;;;;;15.45;7.97;;;;;;;-6.97;82.49;100062.66;5089359;28;20016;-77
2021/01/30 05:16:57;;;;;;;16.80;7.05;;;;;;;-6.89;82.38;100056.47;5089934;28;20541;-76
2021/01/30 05:19:22;;;;;;;15.35;6.70;;;;;;;-6.82;82.39;100055.59;5074903;28;20073;-77
2021/01/30 05:21:52;;;;;;;17.40;8.00;;;;;;;-6.74;82.64;100050.22;5077075;28;20399;-76
2021/01/30 05:24:17;;;;;;;15.88;6.63;;;;;;;-6.68;82.44;100048.69;5092632;28;20024;-75
2021/01/30 05:27:04;;;;;;;15.18;7.72;;;;;;;-6.62;82.27;100047.94;5093920;28;20027;-76
2021/01/30 05:29:35;;;;;;;17.30;8.38;;;;;;;-6.55;82.65;100053.34;5093913;28;20031;-77
2021/01/30 05:32:39;;;;;;;18.67;7.77;;;;;;;-6.49;82.51;100056.13;5062562;28;20115;-77
2021/01/30 05:35:10;;;;;;;16.38;5.95;;;;;;;-6.39;82.53;100047.88;5052696;28;20033;-77
2021/01/30 05:37:39;;;;;;;15.25;7.82;;;;;;;-6.31;82.39;100045.13;5068631;28;20781;-77
2021/01/30 05:40:17;;;;;;;16.95;7.72;;;;;;;-6.24;82.16;100052.41;5093796;28;20047;-76
2021/01/30 05:42:51;;;;;;;18.55;7.70;;;;;;;-6.19;82.21;100039.38;5094141;28;20047;-76
2021/01/30 05:45:40;;;;;;;12.63;6.22;;;;;;;-6.12;82.39;100035.00;5095216;28;20032;-76
2021/01/30 05:48:11;;;;;;;14.48;6.82;;;;;;;-6.06;82.45;100029.78;5079889;28;20035;-75
2021/01/30 05:50:39;;;;;;;12.98;7.00;;;;;;;-6.02;82.35;100024.94;5056959;28;20028;-76
2021/01/30 05:53:05;;;;;;;15.38;7.03;;;;;;;-5.98;82.10;100026.19;5091989;28;20032;-76
2021/01/30 05:55:35;;;;;;;18.35;7.03;;;;;;;-5.94;82.30;100027.50;5093114;28;20024;-77
2021/01/30 05:58:08;;;;;;;14.73;7.85;;;;;;;-5.90;82.22;100028.72;5092367;28;20024;-77
2021/01/30 06:00:34;;;;;;;16.60;8.63;;;;;;;-5.83;82.67;100037.59;5093643;28;20039;-77
2021/01/30 06:03:23;;;;;;;18.67;8.32;;;;;;;-5.78;82.21;100026.44;5087835;28;20024;-76
2021/01/30 06:05:53;;;;;;;18.70;8.07;;;;;;;-5.71;82.60;100034.47;5092734;28;20024;-76
2021/01/30 06:08:30;;;;;;;16.15;7.63;;;;;;;-5.59;82.98;100025.03;5092545;28;20020;-76
2021/01/30 06:11:09;;;;;;;18.10;7.90;;;;;;;-5.41;82.47;100022.75;5093528;28;20394;-76
2021/01/30 06:13:35;;;;;;;13.77;6.80;;;;;;;-5.25;82.75;100008.41;5060892;28;20535;-78
2021/01/30 06:16:01;;;;;;;14.45;6.43;;;;;;;-5.10;82.79;100008.34;5075187;28;20036;-78
2021/01/30 06:18:31;;;;;;;14.82;6.50;;;;;;;-4.96;82.66;100012.75;5092948;28;20028;-77
2021/01/30 06:21:20;;;;;;;17.05;6.90;;;;;;;-4.83;82.96;100008.53;5094366;28;20024;-77
2021/01/30 06:24:05;;;;;;;12.57;6.22;;;;;;;-4.75;82.65;100005.75;5092469;28;20039;-78
2021/01/30 06:26:31;;;;;;;13.07;5.38;;;;;;;-4.69;82.47;100015.63;5093096;28;20024;-77
2021/01/30 06:28:59;;;;;;;10.73;5.30;;;;;;;-4.68;82.94;100015.44;5075308;28;20044;-77
2021/01/30 06:31:39;;;;;;;11.40;5.72;;;;;;;-4.70;82.61;100027.28;5091699;28;20032;-77
2021/01/30 06:34:31;;;;;;;10.32;5.80;;;;;;;-4.74;82.70;100031.34;5074360;28;20047;-76
2021/01/30 06:36:57;;;;;;;12.25;5.95;;;;;;;-4.79;82.69;100031.09;5076910;28;20036;-77
2021/01/30 06:39:33;;;;;;;15.60;7.68;;;;;;;-4.79;82.84;100036.41;5091743;28;20031;-76
2021/01/30 06:42:06;;;;;;;12.90;5.65;;;;;;;-4.79;82.60;100020.47;5092845;28;20028;-76
2021/01/30 06:44:31;;;;;;;11.50;5.57;;;;;;;-4.77;83.08;100018.44;5073082;28;20039;-77
2021/01/30 06:47:19;;;;;;;15.85;6.03;;;;;;;-4.74;82.77;100007.41;5087451;28;20027;-77
2021/01/30 06:49:45;;;;;;;13.20;5.90;;;;;;;-4.61;82.80;100012.84;5089419;28;20487;-78
2021/01/30 06:52:21;;;;;;;13.88;5.93;;;;;;;-4.48;83.06;100012.06;5090467;28;20042;-77
2021/01/30 06:54:47;;;;;;;14.18;6.20;;;;;;;-4.31;82.73;100007.28;5075363;28;20381;-77
2021/01/30 06:57:22;;;;;;;13.13;6.32;;;;;;;-4.17;82.84;100003.69;5086976;28;20031;-77
2021/01/30 07:00:15;;;;;;;12.70;5.88;;;;;;;-4.06;82.65;99999.66;5073111;28;20395;-77
2021/01/30 07:02:45;;;;;;;10.38;6.25;;;;;;;-3.97;82.64;100002.97;5085773;28;20024;-76
2021/01/30 07:05:32;;;;;;;9.65;4.97;;;;;;;-3.93;82.66;99999.72;5071928;28;20145;-77
2021/01/30 07:08:36;;;;;;;13.45;6.30;;;;;;;-3.89;82.68;100000.13;5060997;28;20078;-77
2021/01/30 07:11:26;;;;;;;12.00;6.22;;;;;;;-3.82;83.06;99999.13;5086745;28;20019;-77
2021/01/30 07:14:13;;;;;;;12.85;5.20;;;;;;;-3.81;83.05;99997.28;5081118;28;20021;-76
2021/01/30 07:17:00;;;;;;;12.85;7.15;;;;;;;-3.77;83.21;99995.03;5081994;28;20020;-77
2021/01/30 07:19:54;;;;;;;11.15;5.32;;;;;;;-3.79;82.63;99984.59;5090092;28;20035;-77
2021/01/30 07:22:22;;;;;;;11.85;5.53;;;;;;;-3.74;82.61;99994.63;5097093;28;20385;-78
2021/01/30 07:24:52;;;;;;;13.10;6.00;;;;;;;-3.71;83.22;99994.22;5083738;28;20050;-77
2021/01/30 07:27:30;;;;;;;11.05;5.18;;;;;;;-3.65;82.97;99996.94;5090344;28;20107;-76
2021/01/30 07:30:07;;;;;;;14.27;5.70;;;;;;;-3.56;83.14;100008.22;5087994;28;20040;-76
2021/01/30 07:32:36;;;;;;;12.45;5.18;;;;;;;-3.48;83.57;100001.91;5073015;28;20035;-78
2021/01/30 07:35:04;;;;;;;13.57;5.78;;;;;;;-3.42;83.52;99996.56;5089011;28;20108;-77
2021/01/30 07:37:51;;;;;;;13.95;6.38;;;;;;;-3.40;83.05;100004.38;5088766;28;20480;-77
2021/01/30 07:40:24;;;;;;;9.18;5.18;;;;;;;-3.40;83.33;99996.38;5089560;28;20051;-78
2021/01/30 07:42:53;;;;;;;11.70;6.30;;;;;;;-3.39;82.94;99984.69;5069318;28;20452;-77
2021/01/30 07:45:18;;;;;;;12.45;5.78;;;;;;;-3.38;82.99;99986.34;5077262;28;20030;-78
2021/01/30 07:47:52;;;;;;;9.63;4.93;;;;;;;-3.31;83.27;99987.16;5090569;28;20020;-76
2021/01/30 07:50:25;;;;;;;12.63;5.78;;;;;;;-3.19;83.71;99982.06;5088644;28;20444;-77
2021/01/30 07:53:07;;;;;;;9.43;4.82;;;;;;;-3.05;83.45;99977.56;5088828;28;20015;-77
2021/01/30 07:55:34;;;;;;;8.77;4.45;;;;;;;-2.92;83.58;99986.41;5067597;28;20031;-77
2021/01/30 07:58:07;;;;;;;8.85;4.72;;;;;;;-2.82;83.86;99987.81;5091249;28;20056;-77
2021/01/30 08:00:47;;;;;;;8.70;4.35;;;;;;;-2.77;83.48;99977.34;5082183;28;20066;-76
2021/01/30 08:03:22;;;;;;;8.95;4.45;;;;;;;-2.75;83.72;99978.78;5085573;28;20066;-76
2021/01/30 08:06:06;;;;;;;11.55;5.25;;;;;;;-2.77;83.25;99972.84;5073401;28;20105;-76
2021/01/30 08:08:53;;;;;;;12.18;5.90;;;;;;;-2.77;83.28;99972.03;5079591;28;20594;-78
2021/01/30 08:11:28;;;;;;;9.00;4.97;;;;;;;-2.79;83.56;99960.72;5087343;28;20496;-77
2021/01/30 08:14:15;;;;;;;7.75;4.50;;;;;;;-2.78;83.17;99960.53;5088213;28;20031;-76
2021/01/30 08:16:48;;;;;;;11.30;5.07;;;;;;;-2.69;83.62;99953.13;5090701;28;20028;-82
2021/01/30 08:19:32;;;;;;;10.68;7.30;;;;;;;-2.69;83.35;99958.47;5084738;28;20028;-76
2021/01/30 08:22:00;;;;;;;7.03;3.90;;;;;;;-2.69;83.42;99950.47;5068658;28;20059;-77
2021/01/30 08:24:34;;;;;;;8.68;3.75;;;;;;;-2.68;83.15;99955.56;5085112;28;20094;-80
2021/01/30 08:27:07;;;;;;;8.40;4.63;;;;;;;-2.62;83.46;99959.28;5060386;28;20052;-77
2021/01/30 08:29:38;;;;;;;8.32;5.25;;;;;;;-2.58;83.65;99960.50;5077778;28;20119;-78
2021/01/30 08:32:25;;;;;;;8.07;4.50;;;;;;;-2.52;83.89;99954.31;5062860;28;20024;-78
2021/01/30 08:34:54;;;;;;;12.85;6.80;;;;;;;-2.42;83.19;99942.41;5084047;28;20031;-77
2021/01/30 08:37:19;;;;;;;7.65;4.38;;;;;;;-2.41;83.34;99949.38;5085013;28;20116;-77
2021/01/30 08:40:15;;;;;;;26.73;13.57;;;;;;;-2.43;83.76;99952.25;5087208;28;20127;-77
2021/01/30 08:42:54;;;;;;;10.77;6.50;;;;;;;-2.44;83.37;99939.94;5086957;28;20042;-77
2021/01/30 08:45:31;;;;;;;16.65;7.70;;;;;;;-2.44;83.58;99944.47;5085671;28;20055;-77
2021/01/30 08:48:24;;;;;;;6.68;4.45;;;;;;;-2.39;83.61;99942.81;5070271;28;20038;-78
2021/01/30 08:50:50;;;;;;;8.52;3.83;;;;;;;-2.29;83.40;99953.06;5083550;28;20066;-75
2021/01/30 08:53:21;;;;;;;8.40;4.43;;;;;;;-2.25;83.41;99939.06;5079690;28;20123;-75
2021/01/30 08:55:52;;;;;;;9.45;5.10;;;;;;;-2.17;83.42;99948.69;5084011;28;20115;-76
2021/01/30 08:58:44;;;;;;;7.88;4.75;;;;;;;-2.14;83.60;99947.44;5073636;28;20035;-76
2021/01/30 09:01:11;;;;;;;5.93;3.22;;;;;;;-2.10;83.34;99945.97;5091854;28;20024;-76
2021/01/30 09:03:48;;;;;;;6.82;3.47;;;;;;;-2.11;83.29;99939.81;5092566;28;20412;-76
2021/01/30 09:06:40;;;;;;;7.43;3.80;;;;;;;-2.10;83.22;99937.97;5093416;28;20031;-77
2021/01/30 09:09:09;;;;;;;8.63;4.93;;;;;;;-2.04;83.39;99939.81;5091977;28;20088;-76
2021/01/30 09:11:43;;;;;;;24.55;7.43;;;;;;;-1.97;83.25;99943.25;5093005;28;20030;-76
2021/01/30 09:14:28;;;;;;;9.07;3.85;;;;;;;-1.92;83.35;99937.28;5074391;28;20020;-76
2021/01/30 09:16:56;;;;;;;6.90;3.35;;;;;;;-1.83;83.10;99936.00;5082810;28;20036;-75
2021/01/30 09:19:24;;;;;;;8.82;4.53;;;;;;;-1.80;83.23;99936.41;5090839;28;20094;-77
2021/01/30 09:22:05;;;;;;;7.07;3.17;;;;;;;-1.75;82.97;99942.94;5092967;28;20028;-76
2021/01/30 09:24:59;;;;;;;7.55;2.53;;;;;;;-1.61;83.31;99933.81;5079489;28;20077;-76
2021/01/30 09:27:32;;;;;;;6.30;1.95;;;;;;;-1.43;83.30;99938.44;5084085;28;20064;-77
2021/01/30 09:30:02;;;;;;;6.38;1.83;;;;;;;-1.31;83.23;99942.09;5086315;28;20027;-77
2021/01/30 09:32:29;;;;;;;2.25;1.27;;;;;;;-1.17;83.08;99940.13;5070626;28;20054;-76
2021/01/30 09:34:59;;;;;;;2.47;1.67;;;;;;;-1.08;82.87;99938.81;5074684;28;20027;-76
2021/01/30 09:37:29;;;;;;;5.35;1.98;;;;;;;-1.01;82.87;99936.91;5074385;28;20035;-77
2021/01/30 09:39:56;;;;;;;3.97;1.83;;;;;;;-0.92;82.89;99938.25;5079010;28;20420;-76
2021/01/30 09:42:21;;;;;;;6.93;1.90;;;;;;;-0.84;82.71;99933.69;5084275;28;20074;-76
2021/01/30 09:44:59;;;;;;;4.03;1.85;;;;;;;-0.74;82.21;99940.16;5083059;28;20048;-75
2021/01/30 09:47:25;;;;;;;3.63;1.90;;;;;;;-0.68;82.22;99938.47;5087787;28;20063;-76
2021/01/30 09:50:02;;;;;;;3.63;1.48;;;;;;;-0.70;82.13;99933.31;5087637;28;20393;-77
2021/01/30 09:52:28;;;;;;;3.47;1.33;;;;;;;-0.73;82.02;99936.44;5085200;28;20024;-75
2021/01/30 09:54:58;;;;;;;3.05;1.42;;;;;;;-0.71;82.25;99938.88;5062936;28;20442;-77
2021/01/30 09:57:25;;;;;;;3.85;1.77;;;;;;;-0.60;82.22;99946.22;5072672;28;20111;-78
2021/01/30 10:00:00;;;;;;;3.63;1.58;;;;;;;-0.54;81.86;99942.63;5080771;28;20036;-77
2021/01/30 10:02:27;;;;;;;3.25;1.55;;;;;;;-0.53;81.71;99946.94;5074801;28;20031;-77
2021/01/30 10:05:05;;;;;;;2.55;1.80;;;;;;;-0.55;81.31;99937.50;5088615;28;20082;-76
2021/01/30 10:07:31;;;;;;;2.95;1.85;;;;;;;-0.56;81.50;99941.22;5093519;28;20028;-74
2021/01/30 10:09:56;;;;;;;2.97;1.90;;;;;;;-0.56;81.60;99934.00;5074415;28;20377;-79
2021/01/30 10:12:22;;;;;;;3.97;1.77;;;;;;;-0.54;81.33;99934.63;5090833;28;20027;-74
2021/01/30 10:14:50;;;;;;;2.78;1.65;;;;;;;-0.51;81.13;99928.81;5087889;28;20438;-76
2021/01/30 10:17:30;;;;;;;4.65;2.47;;;;;;;-0.52;81.30;99927.19;5071225;28;20058;-76
2021/01/30 10:20:07;;;;;;;3.20;1.17;;;;;;;-0.51;81.54;99928.00;5070183;28;20020;-75
2021/01/30 10:22:37;;;;;;;3.33;1.50;;;;;;;-0.50;81.37;99925.06;5091826;28;20329;-75
2021/01/30 10:25:07;;;;;;;3.95;1.35;;;;;;;-0.49;81.14;99921.38;5093033;28;20089;-73
2021/01/30 10:27:32;;;;;;;5.43;1.50;;;;;;;-0.44;81.39;99920.69;5092354;28;20028;-74
2021/01/30 10:29:58;;;;;;;5.15;2.30;;;;;;;-0.41;80.79;99916.75;5076007;28;20495;-74
2021/01/30 10:32:54;;;;;;;3.72;2.05;;;;;;;-0.34;81.15;99925.53;5071695;28;20024;-74
2021/01/30 10:35:23;;;;;;;9.18;3.85;;;;;;;-0.32;81.21;99924.28;5078394;28;20026;-75
2021/01/30 10:37:53;;;;;;;2.35;1.80;;;;;;;-0.27;81.02;99931.66;5070284;28;20032;-75
2021/01/30 10:40:33;;;;;;;3.72;2.35;;;;;;;-0.23;80.80;99919.44;5069486;28;20067;-75
2021/01/30 10:43:00;;;;;;;5.05;2.15;;;;;;;-0.18;80.68;99930.28;5091776;28;20040;-74
2021/01/30 10:45:26;;;;;;;5.43;2.30;;;;;;;-0.15;80.71;99924.50;5075928;28;20063;-75
2021/01/30 10:48:03;;;;;;;8.05;2.53;;;;;;;-0.13;80.64;99919.72;5071339;28;20035;-74
2021/01/30 10:50:37;;;;;;;4.38;2.10;;;;;;;-0.11;80.59;99916.81;5069138;28;20020;-74
2021/01/30 10:53:21;;;;;;;5.70;2.20;;;;;;;-0.10;80.21;99913.91;5082018;28;20370;-75
2021/01/30 10:55:46;;;;;;;5.80;2.33;;;;;;;-0.07;80.25;99913.47;5093490;28;20389;-75
2021/01/30 10:58:24;;;;;;;6.75;2.38;;;;;;;-0.05;80.35;99922.09;5091576;28;20032;-74
2021/01/30 11:01:04;;;;;;;2.92;1.85;;;;;;;-0.06;79.83;99915.09;5092373;28;20028;-75
2021/01/30 11:03:51;;;;;;;5.80;1.98;;;;;;;-0.02;80.44;99916.28;5090538;28;20036;-75
2021/01/30 11:06:28;;;;;;;4.15;2.33;;;;;;;0.05;80.08;99910.03;5092155;28;20024;-75
2021/01/30 11:08:53;;;;;;;5.45;2.47;;;;;;;0.07;79.77;99914.13;5074391;28;20028;-75
2021/01/30 11:11:26;;;;;;;5.03;2.58;;;;;;;0.10;80.20;99918.19;5093205;28;20024;-74
2021/01/30 11:13:52;;;;;;;3.65;2.40;;;;;;;0.14;79.96;99914.03;5071382;28;20029;-73
2021/01/30 11:16:28;;;;;;;3.65;2.28;;;;;;;0.17;79.96;99913.59;5074314;28;20073;-75
2021/01/30 11:18:53;;;;;;;5.45;2.72;;;;;;;0.22;79.88;99916.41;5091156;28;20028;-75
2021/01/30 11:21:38;;;;;;;5.50;2.88;;;;;;;0.29;79.66;99913.63;5093049;28;20031;-74
2021/01/30 11:24:19;;;;;;;8.77;3.20;;;;;;;0.28;79.68;99902.09;5090954;28;20504;-74
2021/01/30 11:26:45;;;;;;;5.55;2.92;;;;;;;0.32;79.48;99905.94;5093019;28;20023;-74
2021/01/30 11:29:41;;;;;;;9.15;3.53;;;;;;;0.35;79.42;99892.06;5091847;28;20358;-76
2021/01/30 11:32:09;;;;;;;5.53;3.05;;;;;;;0.37;79.93;99903.38;5084576;28;20056;-73
2021/01/30 11:34:34;;;;;;;5.55;3.17;;;;;;;0.41;79.48;99903.78;5087125;28;20106;-75
2021/01/30 11:37:00;;;;;;;6.60;3.90;;;;;;;0.43;79.66;99897.09;5085456;28;20097;-74
2021/01/30 11:39:34;;;;;;;8.85;4.18;;;;;;;0.49;79.84;99895.41;5055497;28;20036;-76
2021/01/30 11:41:59;;;;;;;5.72;3.38;;;;;;;0.56;79.61;99889.91;5078553;28;20425;-74
2021/01/30 11:44:25;;;;;;;5.18;3.33;;;;;;;0.62;79.68;99889.00;5087680;28;20040;-75
2021/01/30 11:46:50;;;;;;;7.05;3.55;;;;;;;0.70;78.99;99890.53;5066070;28;20039;-75
2021/01/30 11:49:16;;;;;;;5.15;2.90;;;;;;;0.76;79.36;99887.72;5089941;28;20035;-75